Time;durP1;ratioP1;P1;durP2;ratioP2;P2;SDS_P1;SDS_P2;PMS_P1;PMS_P2;Temp;Humidity;BMP_temperature;BMP_pressure;BME280_temperature;BME280_humidity;BME280_pressure;Samples;Min_cycle;Max_cycle;Signal;HPM_P1;HPM_P2
2021/10/14 00:01:41;;;;;;;57.30;38.73;;;;;;;14.42;100.00;100155.66;1715796;82;21057;-84
2021/10/14 00:04:08;;;;;;;52.05;36.75;;;;;;;14.42;100.00;100153.84;1716034;83;21073;-83
2021/10/14 00:06:35;;;;;;;53.98;35.23;;;;;;;14.41;100.00;100152.20;1715615;83;21102;-83
2021/10/14 00:09:03;;;;;;;53.92;35.85;;;;;;;14.36;100.00;100158.39;1716173;83;21156;-84
2021/10/14 00:11:30;;;;;;;47.80;33.50;;;;;;;14.33;100.00;100158.20;1709850;83;21015;-84
2021/10/14 00:13:57;;;;;;;45.17;34.60;;;;;;;14.29;100.00;100159.97;1707780;83;21043;-84
2021/10/14 00:16:24;;;;;;;42.33;33.78;;;;;;;14.26;100.00;100147.16;1708117;83;20963;-84
2021/10/14 00:18:52;;;;;;;54.05;33.90;;;;;;;14.25;100.00;100153.37;1708016;84;21807;-85
2021/10/14 00:21:20;;;;;;;55.35;35.05;;;;;;;14.27;100.00;100154.05;1707920;83;21606;-84
2021/10/14 00:23:48;;;;;;;46.58;33.25;;;;;;;14.30;100.00;100147.21;1749148;80;21563;-84
2021/10/14 00:26:15;;;;;;;45.28;32.78;;;;;;;14.37;100.00;100161.34;1749333;81;21050;-85
2021/10/14 00:28:42;;;;;;;43.30;33.85;;;;;;;14.38;100.00;100164.27;1749439;80;21054;-84
2021/10/14 00:31:09;;;;;;;50.28;34.55;;;;;;;14.40;100.00;100166.77;1749587;80;21156;-84
2021/10/14 00:33:35;;;;;;;45.40;33.30;;;;;;;14.40;100.00;100168.08;1749131;80;22248;-84
2021/10/14 00:36:03;;;;;;;43.75;33.23;;;;;;;14.40;100.00;100170.19;1749632;81;21050;-84
2021/10/14 00:38:31;;;;;;;43.50;33.00;;;;;;;14.40;100.00;100173.31;1749341;80;21546;-85
2021/10/14 00:40:59;;;;;;;43.78;31.87;;;;;;;14.39;100.00;100175.09;1749369;81;21587;-84
2021/10/14 00:43:26;;;;;;;41.13;32.03;;;;;;;14.39;100.00;100175.59;1726687;82;21097;-84
2021/10/14 00:45:53;;;;;;;41.37;31.27;;;;;;;14.38;100.00;100170.02;1749409;80;20998;-84
2021/10/14 00:48:20;;;;;;;39.45;31.10;;;;;;;14.35;100.00;100175.87;1749131;80;21046;-85
2021/10/14 00:50:47;;;;;;;41.23;32.03;;;;;;;14.33;100.00;100174.39;1749798;80;21042;-84
2021/10/14 00:53:14;;;;;;;43.33;32.33;;;;;;;14.30;100.00;100177.33;1749235;80;21053;-84
2021/10/14 00:55:41;;;;;;;46.35;33.90;;;;;;;14.28;100.00;100184.50;1749553;80;21129;-84
2021/10/14 00:58:10;;;;;;;42.13;32.17;;;;;;;14.25;100.00;100182.17;1749389;81;21511;-84
2021/10/14 01:00:37;;;;;;;42.38;32.55;;;;;;;14.19;100.00;100187.52;1749303;80;21113;-85
2021/10/14 01:03:04;;;;;;;46.88;33.00;;;;;;;14.13;100.00;100190.27;1749271;80;21523;-84
2021/10/14 01:05:31;;;;;;;43.98;34.20;;;;;;;14.06;100.00;100197.05;1726576;82;21042;-84
2021/10/14 01:07:59;;;;;;;44.77;34.63;;;;;;;13.96;100.00;100198.92;1749443;80;21161;-84
2021/10/14 01:10:26;;;;;;;50.70;36.77;;;;;;;13.93;100.00;100201.83;1750203;81;21057;-84
2021/10/14 01:12:54;;;;;;;55.95;40.63;;;;;;;13.88;100.00;100200.48;1755131;80;21068;-85
2021/10/14 01:15:25;;;;;;;54.20;41.33;;;;;;;13.80;100.00;100202.17;1755101;80;21073;-86
2021/10/14 01:17:55;;;;;;;54.03;41.95;;;;;;;13.73;100.00;100201.95;1755115;80;21077;-86
2021/10/14 01:20:22;;;;;;;57.50;43.08;;;;;;;13.65;100.00;100200.05;1755052;80;21127;-85
2021/10/14 01:22:49;;;;;;;53.83;43.95;;;;;;;13.57;100.00;100206.49;1754832;80;21081;-85
2021/10/14 01:25:17;;;;;;;52.40;41.18;;;;;;;13.49;100.00;100209.01;1754969;81;21089;-85
2021/10/14 01:27:44;;;;;;;45.23;39.92;;;;;;;13.43;100.00;100214.82;1754904;80;21007;-85
2021/10/14 01:30:12;;;;;;;50.05;40.83;;;;;;;13.38;100.00;100217.36;1754993;80;21069;-84
2021/10/14 01:32:39;;;;;;;50.28;42.05;;;;;;;13.36;100.00;100217.98;1755085;81;21199;-85
2021/10/14 01:35:07;;;;;;;52.55;44.90;;;;;;;13.31;100.00;100217.57;1755160;80;21019;-84
2021/10/14 01:37:35;;;;;;;51.92;43.80;;;;;;;13.27;100.00;100220.14;1755165;81;21002;-85
2021/10/14 01:40:04;;;;;;;54.58;46.30;;;;;;;13.20;100.00;100226.41;1734549;81;21010;-84
2021/10/14 01:42:32;;;;;;;52.45;46.23;;;;;;;13.14;100.00;100230.10;1754833;80;20987;-85
2021/10/14 01:45:00;;;;;;;53.05;46.08;;;;;;;13.03;100.00;100239.74;1755017;81;21804;-85
2021/10/14 01:47:29;;;;;;;51.70;45.95;;;;;;;12.95;100.00;100240.92;1754679;81;21559;-85
2021/10/14 01:49:56;;;;;;;55.33;45.88;;;;;;;12.86;100.00;100245.19;1755282;80;21049;-85
2021/10/14 01:52:24;;;;;;;50.43;44.80;;;;;;;12.82;100.00;100252.97;1755273;80;21045;-84
2021/10/14 01:54:50;;;;;;;53.73;44.63;;;;;;;12.79;100.00;100254.55;1754949;80;21050;-84
2021/10/14 01:57:17;;;;;;;46.63;41.40;;;;;;;12.74;100.00;100258.06;1734498;81;21091;-84
2021/10/14 01:59:44;;;;;;;46.40;41.40;;;;;;;12.73;100.00;100264.25;1755116;81;21033;-85
2021/10/14 02:02:11;;;;;;;53.52;45.40;;;;;;;12.69;100.00;100260.27;1755185;81;21003;-84
2021/10/14 02:04:39;;;;;;;50.65;41.75;;;;;;;12.63;100.00;100265.56;1755175;80;20994;-84
2021/10/14 02:07:05;;;;;;;51.13;41.70;;;;;;;12.55;100.00;100273.25;1755142;80;21033;-85
2021/10/14 02:09:33;;;;;;;51.80;42.05;;;;;;;12.44;100.00;100274.22;1754839;80;21128;-84
2021/10/14 02:12:00;;;;;;;51.05;42.67;;;;;;;12.35;100.00;100281.05;1756545;80;21046;-84
2021/10/14 02:14:27;;;;;;;53.17;41.98;;;;;;;12.27;100.00;100279.13;1757347;80;21033;-84
2021/10/14 02:16:54;;;;;;;48.65;37.70;;;;;;;12.21;100.00;100287.51;1757788;80;20994;-84
2021/10/14 02:19:21;;;;;;;37.00;31.57;;;;;;;12.16;100.00;100288.37;1757403;80;21530;-83
2021/10/14 02:21:48;;;;;;;29.00;25.88;;;;;;;12.09;100.00;100304.22;1757595;81;21634;-84
2021/10/14 02:24:15;;;;;;;25.75;22.77;;;;;;;11.94;100.00;100314.99;1757411;80;21081;-85
2021/10/14 02:26:42;;;;;;;21.35;19.17;;;;;;;11.79;100.00;100318.91;1757497;80;21160;-84
2021/10/14 02:29:12;;;;;;;18.85;16.95;;;;;;;11.61;100.00;100326.03;1757388;80;21023;-82
2021/10/14 02:31:40;;;;;;;20.35;16.75;;;;;;;11.46;100.00;100323.41;1754550;80;21085;-84
2021/10/14 02:34:08;;;;;;;15.98;14.45;;;;;;;11.29;100.00;100338.67;1738616;78;21180;-81
2021/10/14 02:36:35;;;;;;;17.10;15.40;;;;;;;11.16;100.00;100340.16;1768782;80;21018;-86
2021/10/14 02:39:04;;;;;;;16.02;14.40;;;;;;;11.06;100.00;100341.84;1788429;78;21460;-84
2021/10/14 02:41:31;;;;;;;19.12;17.23;;;;;;;10.98;100.00;100346.85;1788701;78;21033;-83
2021/10/14 02:43:59;;;;;;;16.65;14.93;;;;;;;10.92;100.00;100342.99;1788676;79;21096;-83
2021/10/14 02:46:26;;;;;;;17.90;16.00;;;;;;;10.85;100.00;100342.66;1759586;78;21821;-83
2021/10/14 02:48:53;;;;;;;17.65;15.58;;;;;;;10.76;100.00;100342.09;1778641;78;21092;-82
2021/10/14 02:51:20;;;;;;;16.60;14.90;;;;;;;10.69;100.00;100344.83;1790487;78;21047;-85
2021/10/14 02:53:47;;;;;;;18.90;15.23;;;;;;;10.66;100.00;100360.69;1791543;78;21019;-78
2021/10/14 02:56:15;;;;;;;24.90;15.58;;;;;;;10.64;100.00;100362.13;1782211;78;21558;-79
2021/10/14 02:58:42;;;;;;;14.43;12.95;;;;;;;10.71;100.00;100369.80;1775551;80;21974;-79
2021/10/14 03:01:09;;;;;;;15.95;12.68;;;;;;;10.77;100.00;100380.70;1768168;80;21100;-76
2021/10/14 03:03:37;;;;;;;13.08;11.78;;;;;;;10.71;100.00;100386.72;1787920;78;21104;-77
2021/10/14 03:06:04;;;;;;;13.48;12.05;;;;;;;10.66;100.00;100387.57;1788485;79;21500;-77
2021/10/14 03:08:34;;;;;;;12.47;10.82;;;;;;;10.65;100.00;100391.12;1788430;78;20970;-80
2021/10/14 03:11:01;;;;;;;11.15;10.05;;;;;;;10.67;100.00;100394.44;1781519;78;21138;-91
2021/10/14 03:13:29;;;;;;;10.80;9.75;;;;;;;10.67;100.00;100390.99;1767930;79;21565;-84
2021/10/14 03:15:56;;;;;;;9.60;8.70;;;;;;;10.65;100.00;100395.03;1765345;79;21105;-81
2021/10/14 03:18:23;;;;;;;8.80;8.00;;;;;;;10.55;100.00;100401.90;1764263;79;21081;-81
2021/10/14 03:20:52;;;;;;;8.68;7.87;;;;;;;10.44;100.00;100401.44;1767317;79;21047;-82
2021/10/14 03:23:20;;;;;;;9.00;8.10;;;;;;;10.36;100.00;100403.78;1763518;81;21975;-84
2021/10/14 03:25:47;;;;;;;8.88;7.97;;;;;;;10.28;100.00;100409.59;1716731;81;20999;-81
2021/10/14 03:28:14;;;;;;;9.85;7.90;;;;;;;10.24;100.00;100414.67;1761362;79;20983;-81
2021/10/14 03:30:41;;;;;;;7.80;7.10;;;;;;;10.19;100.00;100416.80;1764245;79;21097;-82
2021/10/14 03:33:08;;;;;;;7.97;6.92;;;;;;;10.14;100.00;100422.81;1739557;80;21007;-81
2021/10/14 03:35:37;;;;;;;8.45;6.30;;;;;;;10.12;100.00;100429.45;1767857;79;21503;-81
2021/10/14 03:38:06;;;;;;;6.33;5.83;;;;;;;10.12;100.00;100438.55;1763076;80;21165;-83
2021/10/14 03:40:34;;;;;;;6.55;5.95;;;;;;;10.05;100.00;100441.27;1771265;79;21121;-81
2021/10/14 03:43:03;;;;;;;5.97;5.40;;;;;;;9.97;100.00;100448.82;1769280;79;21062;-81
2021/10/14 03:45:32;;;;;;;5.30;4.80;;;;;;;9.91;100.00;100461.80;1763695;79;21176;-83
2021/10/14 03:48:02;;;;;;;5.08;4.67;;;;;;;9.84;100.00;100461.45;1764988;80;21164;-88
2021/10/14 03:50:29;;;;;;;5.30;4.25;;;;;;;9.80;100.00;100473.02;1783442;79;21066;-82
2021/10/14 03:52:56;;;;;;;4.25;3.95;;;;;;;9.77;100.00;100477.16;1765134;79;21554;-82
2021/10/14 03:55:23;;;;;;;4.55;4.15;;;;;;;9.69;100.00;100489.89;1762775;79;21076;-82
2021/10/14 03:57:50;;;;;;;3.60;3.30;;;;;;;9.66;100.00;100494.01;1762146;81;21068;-83
2021/10/14 04:00:17;;;;;;;3.60;3.33;;;;;;;9.60;100.00;100493.53;1761324;79;21129;-82
2021/10/14 04:02:44;;;;;;;3.77;3.47;;;;;;;9.54;100.00;100500.93;1770315;79;21320;-82
2021/10/14 04:05:11;;;;;;;3.87;3.15;;;;;;;9.54;100.00;100503.05;1768148;79;20994;-82
2021/10/14 04:07:38;;;;;;;2.80;2.60;;;;;;;9.47;100.00;100504.44;1746976;80;21048;-81
2021/10/14 04:10:10;;;;;;;4.00;2.85;;;;;;;9.41;100.00;100499.23;1751376;80;21109;-82
2021/10/14 04:12:37;;;;;;;3.50;3.20;;;;;;;9.33;100.00;100506.75;1769967;79;21891;-81
2021/10/14 04:15:06;;;;;;;3.12;2.65;;;;;;;9.31;100.00;100513.34;1767993;79;20991;-83
2021/10/14 04:17:34;;;;;;;2.90;2.70;;;;;;;9.29;100.00;100519.59;1760831;79;21014;-82
2021/10/14 04:20:04;;;;;;;3.35;3.05;;;;;;;9.22;100.00;100533.47;1766964;79;21029;-82
2021/10/14 04:22:31;;;;;;;5.22;3.20;;;;;;;9.17;100.00;100537.36;1748043;79;21026;-81
2021/10/14 04:24:58;;;;;;;3.77;3.40;;;;;;;9.14;100.00;100548.32;1767327;79;21865;-83
2021/10/14 04:27:26;;;;;;;3.30;3.00;;;;;;;9.12;100.00;100557.98;1764754;79;21117;-81
2021/10/14 04:29:53;;;;;;;4.87;3.17;;;;;;;9.09;100.00;100554.28;1768048;79;21050;-84
2021/10/14 04:32:21;;;;;;;3.30;3.10;;;;;;;9.08;100.00;100563.05;1766298;79;20982;-86
2021/10/14 04:34:51;;;;;;;4.00;2.77;;;;;;;9.09;100.00;100565.98;1757528;79;21007;-84
2021/10/14 04:37:18;;;;;;;3.85;3.00;;;;;;;9.12;100.00;100580.55;1758803;79;21046;-85
2021/10/14 04:39:45;;;;;;;3.20;2.90;;;;;;;9.11;100.00;100588.78;1772052;79;21437;-84
2021/10/14 04:42:12;;;;;;;3.50;3.20;;;;;;;9.08;100.00;100592.06;1745700;80;21072;-84
2021/10/14 04:44:39;;;;;;;5.78;3.67;;;;;;;9.06;100.00;100603.88;1766276;81;22006;-85
2021/10/14 04:47:06;;;;;;;5.15;4.70;;;;;;;9.06;100.00;100616.02;1758959;81;21109;-84
2021/10/14 04:49:35;;;;;;;4.78;4.08;;;;;;;9.07;100.00;100620.28;1746781;79;21166;-88
2021/10/14 04:52:02;;;;;;;4.35;3.95;;;;;;;9.04;100.00;100625.22;1741452;81;21505;-88
2021/10/14 04:54:30;;;;;;;4.60;3.92;;;;;;;9.03;100.00;100633.94;1741301;81;21042;-88
2021/10/14 04:56:57;;;;;;;4.50;4.10;;;;;;;9.02;100.00;100633.58;1741360;81;21144;-88
2021/10/14 04:59:24;;;;;;;6.15;4.42;;;;;;;9.03;100.00;100650.83;1743096;81;21582;-87
2021/10/14 05:01:51;;;;;;;13.62;6.67;;;;;;;9.02;100.00;100656.13;1749477;79;21130;-91
2021/10/14 05:04:19;;;;;;;9.58;7.80;;;;;;;9.02;100.00;100667.83;1741504;81;21370;-83
2021/10/14 05:06:49;;;;;;;11.03;8.30;;;;;;;8.98;100.00;100656.81;1741666;82;21037;-82
2021/10/14 05:09:18;;;;;;;11.18;10.08;;;;;;;8.92;100.00;100665.02;1739826;80;21066;-84
2021/10/14 05:11:44;;;;;;;13.00;10.43;;;;;;;8.86;100.00;100671.45;1748469;80;21192;-84
2021/10/14 05:14:11;;;;;;;14.28;9.20;;;;;;;8.78;100.00;100675.84;1765116;80;21125;-83
2021/10/14 05:16:38;;;;;;;11.83;10.58;;;;;;;8.73;100.00;100691.39;1762132;79;21077;-83
2021/10/14 05:19:06;;;;;;;13.03;10.60;;;;;;;8.65;100.00;100705.68;1754907;80;21025;-84
2021/10/14 05:21:33;;;;;;;12.40;11.10;;;;;;;8.60;100.00;100702.56;1735735;80;20994;-84
2021/10/14 05:24:00;;;;;;;10.82;9.70;;;;;;;8.53;100.00;100709.91;1759901;79;21143;-84
2021/10/14 05:26:32;;;;;;;11.53;10.32;;;;;;;8.51;100.00;100728.66;1773461;78;21204;-87
2021/10/14 05:29:01;;;;;;;11.33;10.20;;;;;;;8.47;100.00;100721.17;1785684;78;21065;-86
2021/10/14 05:31:28;;;;;;;11.43;10.13;;;;;;;8.45;100.00;100729.01;1785802;79;21006;-87
2021/10/14 05:34:31;;;;;;;11.15;9.98;;;;;;;8.47;100.00;100741.94;1786227;79;21037;-84
2021/10/14 05:48:16;;;;;;;10.68;9.63;;;;;;;8.75;100.00;100769.54;1840799;77;22373;-84
2021/10/14 05:50:43;;;;;;;10.90;9.80;;;;;;;8.73;100.00;100771.88;1808489;78;21598;-84
2021/10/14 05:53:10;;;;;;;10.85;9.75;;;;;;;8.72;100.00;100776.22;1804801;79;21213;-83
2021/10/14 05:55:38;;;;;;;10.03;9.03;;;;;;;8.74;100.00;100785.20;1798065;78;21534;-83
2021/10/14 05:58:05;;;;;;;10.82;9.73;;;;;;;8.73;100.00;100793.46;1789657;79;21630;-86
2021/10/14 06:00:32;;;;;;;10.75;9.65;;;;;;;8.72;100.00;100789.67;1775988;80;21046;-83
2021/10/14 06:02:59;;;;;;;10.72;9.63;;;;;;;8.70;100.00;100799.32;1779168;80;21553;-83
2021/10/14 06:05:26;;;;;;;11.22;10.13;;;;;;;8.69;100.00;100811.48;1779067;80;21608;-84
2021/10/14 06:07:53;;;;;;;10.32;9.33;;;;;;;8.67;100.00;100805.07;1783265;78;21018;-83
2021/10/14 06:10:21;;;;;;;11.22;10.08;;;;;;;8.66;100.00;100816.37;1781155;80;21023;-83
2021/10/14 06:12:48;;;;;;;11.18;9.98;;;;;;;8.65;100.00;100822.98;1773367;80;21466;-85
2021/10/14 06:15:17;;;;;;;12.60;10.90;;;;;;;8.63;100.00;100833.47;1782567;80;21097;-84
2021/10/14 06:17:46;;;;;;;11.50;8.95;;;;;;;8.63;100.00;100837.81;1766175;79;21542;-87
2021/10/14 06:20:13;;;;;;;11.93;10.63;;;;;;;8.62;100.00;100835.69;1780604;80;21281;-87
2021/10/14 06:22:41;;;;;;;11.93;10.72;;;;;;;8.63;100.00;100854.23;1780782;80;21052;-86
2021/10/14 06:25:08;;;;;;;11.63;10.50;;;;;;;8.65;100.00;100860.63;1816839;78;21486;-84
2021/10/14 06:27:36;;;;;;;12.63;11.33;;;;;;;8.63;100.00;100866.36;1789786;78;21137;-83
2021/10/14 06:30:04;;;;;;;11.75;10.43;;;;;;;8.62;100.00;100864.25;1766833;80;21749;-84
2021/10/14 06:32:31;;;;;;;12.25;11.05;;;;;;;8.64;100.00;100879.72;1753537;79;21153;-83
2021/10/14 06:34:58;;;;;;;14.40;12.18;;;;;;;8.66;100.00;100887.77;1781518;79;21202;-84
2021/10/14 06:37:25;;;;;;;14.05;12.55;;;;;;;8.67;100.00;100893.34;1796752;79;21007;-84
2021/10/14 06:39:53;;;;;;;14.87;11.65;;;;;;;8.67;100.00;100891.22;1791133;79;21104;-84
2021/10/14 06:42:20;;;;;;;13.60;12.30;;;;;;;8.68;100.00;100896.78;1766209;79;21881;-84
2021/10/14 06:44:47;;;;;;;15.68;12.85;;;;;;;8.73;100.00;100918.56;1765293;79;21896;-84
2021/10/14 06:47:15;;;;;;;15.03;13.43;;;;;;;8.72;100.00;100911.22;1765492;79;21111;-85
2021/10/14 06:49:42;;;;;;;14.28;12.63;;;;;;;8.75;100.00;100909.75;1767759;81;21049;-83
2021/10/14 06:52:09;;;;;;;16.77;13.83;;;;;;;8.75;100.00;100911.05;1737939;81;21127;-83
2021/10/14 06:54:38;;;;;;;15.45;13.90;;;;;;;8.72;100.00;100917.72;1735331;82;21128;-85
2021/10/14 06:57:07;;;;;;;17.30;13.72;;;;;;;8.69;100.00;100920.52;1735335;82;21024;-85
2021/10/14 06:59:34;;;;;;;18.32;14.35;;;;;;;8.70;100.00;100932.55;1740232;81;21088;-83
2021/10/14 07:02:02;;;;;;;16.32;14.63;;;;;;;8.70;100.00;100935.63;1764432;81;21069;-85
2021/10/14 07:04:30;;;;;;;16.42;14.70;;;;;;;8.70;100.00;100937.73;1768651;81;20994;-85
2021/10/14 07:06:59;;;;;;;17.40;15.43;;;;;;;8.68;100.00;100938.33;1759828;81;21236;-84
2021/10/14 07:09:28;;;;;;;18.95;15.88;;;;;;;8.72;100.00;100929.88;1757307;81;21033;-86
2021/10/14 07:11:58;;;;;;;16.97;15.25;;;;;;;8.73;100.00;100928.47;1733970;81;21011;-84
2021/10/14 07:14:24;;;;;;;17.65;15.85;;;;;;;8.73;100.00;100942.75;1736994;81;21062;-84
2021/10/14 07:16:52;;;;;;;17.67;15.63;;;;;;;8.73;100.00;100939.34;1729484;82;21112;-83
2021/10/14 07:19:19;;;;;;;19.57;16.42;;;;;;;8.73;100.00;100951.84;1709897;82;21053;-82
2021/10/14 07:21:47;;;;;;;18.42;16.15;;;;;;;8.73;100.00;100948.42;1729449;82;21060;-83
2021/10/14 07:24:17;;;;;;;17.80;15.55;;;;;;;8.73;100.00;100958.33;1714671;81;21037;-87
2021/10/14 07:26:44;;;;;;;17.27;15.38;;;;;;;8.74;100.00;100961.30;1757696;80;21695;-85
2021/10/14 07:29:13;;;;;;;18.17;15.83;;;;;;;8.75;100.00;100963.42;1754615;81;21026;-85
2021/10/14 07:31:41;;;;;;;17.52;14.85;;;;;;;8.74;100.00;100969.09;1729633;82;21135;-84
2021/10/14 07:34:09;;;;;;;17.42;15.43;;;;;;;8.74;100.00;100978.63;1741389;81;21116;-85
2021/10/14 07:36:37;;;;;;;18.42;16.52;;;;;;;8.74;100.00;100982.08;1729705;83;21061;-85
2021/10/14 07:39:04;;;;;;;18.92;15.70;;;;;;;8.71;100.00;100991.34;1751451;80;21528;-86
2021/10/14 07:41:31;;;;;;;18.37;16.40;;;;;;;8.73;100.00;101001.66;1739917;81;21062;-87
2021/10/14 07:44:00;;;;;;;20.62;16.37;;;;;;;8.71;100.00;101007.39;1760845;79;21141;-85
2021/10/14 07:46:28;;;;;;;20.37;16.57;;;;;;;8.69;100.00;101003.60;1702821;81;21142;-86
2021/10/14 07:48:55;;;;;;;18.60;16.60;;;;;;;8.72;100.00;101009.07;1714690;82;21055;-85
2021/10/14 07:51:21;;;;;;;19.50;17.17;;;;;;;8.74;100.00;101009.78;1717923;82;21616;-84
2021/10/14 07:53:49;;;;;;;19.65;16.05;;;;;;;8.73;100.00;101012.04;1734254;80;21049;-87
2021/10/14 07:56:16;;;;;;;19.27;17.07;;;;;;;8.74;100.00;101023.62;1749268;80;21480;-85
2021/10/14 07:58:43;;;;;;;18.30;16.37;;;;;;;8.72;100.00;101025.47;1719885;80;21088;-87
2021/10/14 08:01:11;;;;;;;20.77;17.27;;;;;;;8.72;100.00;101025.95;1754929;80;21539;-86
2021/10/14 08:03:40;;;;;;;20.55;17.50;;;;;;;8.74;100.00;101027.52;1751938;79;21152;-86
2021/10/14 08:06:07;;;;;;;20.57;17.17;;;;;;;8.78;100.00;101035.95;1764777;80;21100;-85
2021/10/14 08:08:34;;;;;;;19.80;17.70;;;;;;;8.78;100.00;101038.06;1772209;80;21162;-85
2021/10/14 08:11:03;;;;;;;19.42;16.82;;;;;;;8.76;100.00;101049.03;1763070;80;21010;-87
2021/10/14 08:13:31;;;;;;;21.07;16.82;;;;;;;8.75;100.00;101047.36;1761229;79;21113;-87
2021/10/14 08:15:59;;;;;;;19.40;16.93;;;;;;;8.74;100.00;101056.08;1761010;80;21160;-87
2021/10/14 08:18:25;;;;;;;19.40;16.75;;;;;;;8.75;100.00;101062.94;1771339;80;21048;-84
2021/10/14 08:20:53;;;;;;;19.62;17.52;;;;;;;8.76;100.00;101065.06;1747367;82;21090;-87
2021/10/14 08:23:21;;;;;;;22.22;18.48;;;;;;;8.76;100.00;101070.25;1746775;82;21579;-85
2021/10/14 08:25:49;;;;;;;19.42;16.93;;;;;;;8.76;100.00;101072.85;1756218;81;22250;-86
2021/10/14 08:28:17;;;;;;;21.48;17.98;;;;;;;8.75;100.00;101078.97;1757847;81;21052;-86
2021/10/14 08:30:47;;;;;;;21.33;16.87;;;;;;;8.76;100.00;101084.53;1756462;81;21026;-86
2021/10/14 08:33:15;;;;;;;21.68;18.37;;;;;;;8.74;100.00;101098.06;1725447;81;21109;-85
2021/10/14 08:35:44;;;;;;;21.90;17.87;;;;;;;8.72;100.00;101099.47;1744807;81;21121;-84
2021/10/14 08:38:12;;;;;;;21.27;18.82;;;;;;;8.74;100.00;101104.11;1744479;82;21101;-87
2021/10/14 08:40:45;;;;;;;20.35;17.10;;;;;;;8.76;100.00;101116.55;1741294;81;21088;-88
2021/10/14 08:43:17;;;;;;;20.45;17.82;;;;;;;8.77;100.00;101122.09;1741962;82;21120;-88
2021/10/14 08:45:50;;;;;;;20.75;17.52;;;;;;;8.77;100.00;101127.28;1755902;79;21703;-86
2021/10/14 08:48:17;;;;;;;21.17;18.00;;;;;;;8.80;100.00;101128.89;1810854;78;21052;-88
2021/10/14 08:50:48;;;;;;;21.57;18.12;;;;;;;8.83;100.00;101145.12;1821952;78;21007;-87
2021/10/14 08:53:16;;;;;;;20.35;17.92;;;;;;;8.89;100.00;101137.44;1839857;77;21065;-86
2021/10/14 08:55:45;;;;;;;23.92;18.82;;;;;;;8.92;100.00;101145.02;1805390;77;21070;-87
2021/10/14 08:58:14;;;;;;;20.55;18.35;;;;;;;8.95;100.00;101147.45;1767809;79;21044;-86
2021/10/14 09:01:04;;;;;;;19.87;17.12;;;;;;;8.95;100.00;101159.58;1795524;78;21027;-88
2021/10/14 09:03:33;;;;;;;20.95;18.25;;;;;;;8.93;100.00;101156.27;1766988;79;21049;-86
2021/10/14 09:18:00;;;;;;;22.30;16.80;;;;;;;9.30;100.00;101178.72;1841629;77;22489;-85
2021/10/14 09:20:39;;;;;;;20.97;17.37;;;;;;;9.37;100.00;101199.98;1823559;78;21021;-85
2021/10/14 09:23:21;;;;;;;22.15;17.32;;;;;;;9.40;100.00;101201.94;1793046;78;21152;-86
2021/10/14 09:25:50;;;;;;;19.67;17.27;;;;;;;9.38;100.00;101188.19;1777087;78;21088;-87
2021/10/14 09:28:24;;;;;;;21.00;17.27;;;;;;;9.37;100.00;101182.61;1773755;78;21021;-88
2021/10/14 09:31:05;;;;;;;21.25;16.95;;;;;;;9.36;100.00;101184.84;1793872;78;21012;-86
2021/10/14 09:33:46;;;;;;;23.67;18.30;;;;;;;9.36;100.00;101180.12;1799191;78;21038;-86
2021/10/14 09:36:23;;;;;;;24.02;18.10;;;;;;;9.36;100.00;101191.33;1810398;79;22209;-85
2021/10/14 09:39:03;;;;;;;31.68;18.75;;;;;;;9.35;100.00;101206.55;1807237;79;21009;-86
2021/10/14 09:41:40;;;;;;;22.37;18.17;;;;;;;9.31;100.00;101205.91;1796638;78;21066;-86
2021/10/14 09:44:16;;;;;;;23.70;18.17;;;;;;;9.30;100.00;101209.91;1795076;78;21023;-86
2021/10/14 09:46:52;;;;;;;28.10;18.80;;;;;;;9.31;100.00;101215.48;1776291;78;21076;-85
2021/10/14 09:49:34;;;;;;;21.35;17.10;;;;;;;9.32;100.00;101213.26;1835376;78;21191;-86
2021/10/14 09:52:02;;;;;;;23.77;18.30;;;;;;;9.25;100.00;101219.28;1836540;78;21084;-84
2021/10/14 09:54:30;;;;;;;23.07;17.98;;;;;;;9.25;100.00;101223.65;1821310;78;21904;-89
2021/10/14 09:56:58;;;;;;;22.93;16.90;;;;;;;9.24;100.00;101229.77;1796977;78;20997;-87
2021/10/14 09:59:25;;;;;;;23.00;17.30;;;;;;;9.28;100.00;101233.84;1735261;80;21038;-87
2021/10/14 10:01:56;;;;;;;22.65;18.05;;;;;;;9.32;100.00;101241.84;1749402;80;21791;-86
2021/10/14 10:04:27;;;;;;;24.05;18.07;;;;;;;9.35;100.00;101239.05;1744476;81;21038;-85
2021/10/14 10:06:57;;;;;;;25.77;17.70;;;;;;;9.41;100.00;101237.84;1752006;80;21048;-84
2021/10/14 10:09:28;;;;;;;21.15;16.82;;;;;;;9.47;100.00;101244.82;1729572;81;21045;-85
2021/10/14 10:11:59;;;;;;;21.27;17.42;;;;;;;9.53;100.00;101250.56;1723304;81;21055;-84
2021/10/14 10:14:28;;;;;;;21.23;17.30;;;;;;;9.56;100.00;101244.72;1790995;78;21086;-86
2021/10/14 10:17:08;;;;;;;22.67;17.05;;;;;;;9.54;100.00;101259.56;1809175;78;21052;-86
2021/10/14 10:19:48;;;;;;;21.57;17.40;;;;;;;9.55;100.00;101259.12;1768615;79;21096;-85
2021/10/14 10:22:38;;;;;;;20.57;16.12;;;;;;;9.55;100.00;101263.84;1814299;77;21499;-85
2021/10/14 10:25:28;;;;;;;20.72;16.25;;;;;;;9.53;100.00;101268.77;1838941;77;21025;-89
2021/10/14 10:27:58;;;;;;;21.35;16.55;;;;;;;9.53;100.00;101265.72;1814058;79;21136;-85
2021/10/14 10:30:33;;;;;;;23.07;16.77;;;;;;;9.56;100.00;101276.39;1813485;78;21069;-84
2021/10/14 10:33:02;;;;;;;20.92;16.37;;;;;;;9.60;100.00;101280.02;1788151;79;20986;-87
2021/10/14 10:35:48;;;;;;;21.97;16.40;;;;;;;9.65;100.00;101283.64;1744679;80;21037;-84
2021/10/14 10:38:26;;;;;;;19.95;15.75;;;;;;;9.69;100.00;101289.48;1772523;79;21049;-87
2021/10/14 10:40:56;;;;;;;21.77;15.98;;;;;;;9.69;100.00;101295.99;1795385;77;21119;-86
2021/10/14 10:43:29;;;;;;;20.23;15.85;;;;;;;9.69;100.00;101304.61;1802028;78;21025;-87
2021/10/14 10:46:06;;;;;;;18.48;14.98;;;;;;;9.76;100.00;101303.80;1794396;78;21053;-88
2021/10/14 10:48:40;;;;;;;17.70;14.40;;;;;;;9.87;100.00;101307.03;1827238;78;20990;-84
2021/10/14 10:51:09;;;;;;;15.05;12.35;;;;;;;10.05;100.00;101303.76;1830604;78;21049;-85
2021/10/14 10:53:48;;;;;;;13.68;11.50;;;;;;;10.20;100.00;101297.59;1795751;78;21871;-84
2021/10/14 10:56:35;;;;;;;14.28;11.97;;;;;;;10.29;100.00;101297.50;1830565;78;21018;-84
2021/10/14 10:59:04;;;;;;;15.63;12.82;;;;;;;10.34;100.00;101303.24;1811835;77;21030;-86
2021/10/14 11:01:31;;;;;;;15.85;12.40;;;;;;;10.35;100.00;101305.36;1809733;77;21056;-85
2021/10/14 11:04:07;;;;;;;16.37;12.28;;;;;;;10.35;100.00;101311.87;1782134;78;21545;-86
2021/10/14 11:06:37;;;;;;;15.78;12.13;;;;;;;10.36;100.00;101319.61;1830311;78;21137;-85
2021/10/14 11:09:10;;;;;;;13.95;11.80;;;;;;;10.40;100.00;101318.50;1829886;78;21080;-87
2021/10/14 11:11:37;;;;;;;19.57;11.95;;;;;;;10.45;100.00;101316.09;1825196;78;21041;-84
2021/10/14 11:14:06;;;;;;;14.78;11.22;;;;;;;10.49;100.00;101322.75;1823920;78;21570;-85
2021/10/14 11:16:34;;;;;;;16.48;11.57;;;;;;;10.48;100.00;101329.74;1807290;78;21034;-84
2021/10/14 11:19:02;;;;;;;12.55;10.60;;;;;;;10.46;100.00;101329.00;1789690;77;21142;-83
2021/10/14 11:21:30;;;;;;;14.10;11.20;;;;;;;10.47;100.00;101318.95;1781454;79;20990;-84
2021/10/14 11:24:00;;;;;;;12.68;10.93;;;;;;;10.58;100.00;101325.59;1787456;78;21543;-84
2021/10/14 11:26:35;;;;;;;11.63;9.48;;;;;;;10.81;100.00;101328.52;1807515;79;21062;-83
2021/10/14 11:29:19;;;;;;;14.58;9.50;;;;;;;11.05;100.00;101338.28;1807223;78;21041;-84
2021/10/14 11:31:58;;;;;;;12.45;9.53;;;;;;;11.25;100.00;101339.56;1807748;78;21861;-84
2021/10/14 11:34:27;;;;;;;13.70;9.60;;;;;;;11.42;100.00;101351.47;1811759;77;21021;-84
2021/10/14 11:37:05;;;;;;;13.60;9.80;;;;;;;11.52;100.00;101352.53;1796327;77;21045;-84
2021/10/14 11:39:43;;;;;;;11.43;9.75;;;;;;;11.54;100.00;101353.72;1786102;77;21107;-83
2021/10/14 11:42:20;;;;;;;12.47;10.60;;;;;;;11.52;100.00;101348.61;1781693;80;20977;-84